Chestermere (Kirkby Field) Airport

CFX8 · 艾伯塔, 加拿大

罗盘
风向 的 Chestermere (Kirkby Field) Airport 16/34
风: 0 kt, 0 beaufort


改变
0 ft 6.000 12.000 18.000 24.000 30.000
Cloud Cloud Cloud Cloud Cloud Cloud Cloud Cloud
OVC 23.000
METAR CYYC 241500Z 00000KT 30SM OVC230 08/M03 A2977 RMK CI8 SLP098 DENSITY ALT 3900FT

METAR Chestermere (Kirkby Field) Airport - CFX8

Chestermere (Kirkby Field) Airport是,加拿大中的小机场。 该机场位于纬度51,04229和经度-113,75450。 该机场有一条跑道: 16/34. 该机场的伪ICAO代码为CFX8。 机场在Edmonton FIR中。

该航空气象观测是针对Calgary International Airport在2024年4月24日 09:00, 当地时间进行的。

机场观察

可变方向的风很小或没有风。

可见度为30 mi。

有乌云密布在23.000 ft的高度。 破损或更高的上限为23.000 ft。

温度和风寒是8 °C。 露点为-3 °C,相对湿度为46%。 海平面上的气压为29,77 inHg (QNH)。

白天

今天,太阳从06:19升起,在20:46降落。 这适用于Chestermere (Kirkby Field) Airport,世界夏令时可能有所不同。 当地时间与世界标准时间之间的时差为-6 小时。 夏令时目前正在进行中。

公司介绍

我们没有关于这个机场的公司信息。

体会

到Vliegles.nl去找飞行课程,跳伞和其他飞行体验。 浏览页面,了解Chestermere (Kirkby Field) Airport附近所有可用的活动。 你也可以使用搜索功能来寻找你所在地附近的特定飞行课程、跳伞或其他飞行体验。

跑道

Id 标题 侧风 逆风 侧风 %
16/34 179°-359°

逆风成分最大的方向会被突出显示,并用于横风计算。 这并不一定意味着这个方向在使用。

乌云

23.000 ft OVC 乌云密布

温度 & 天气

温度 8 °C
露点 -3 °C
相对湿度 46%
Kp-index 0 (0-9)

评论

SLP098海平面压力为29,82 inHg (29,82 inHg)
CI8 DENSITY ALT 3900FT

白天

日出
06:20
中午
13:34
日落
20:47 (11:27)

小工具

你想在你的网站上有一个关于Chestermere (Kirkby Field) Airport的当前航空天气(METAR)的小部件吗?

显示HTML代码
报告变更